Time;durP1;ratioP1;P1;durP2;ratioP2;P2;SDS_P1;SDS_P2;PMS_P1;PMS_P2;Temp;Humidity;BMP_temperature;BMP_pressure;BME280_temperature;BME280_humidity;BME280_pressure;Samples;Min_cycle;Max_cycle;Signal;HPM_P1;HPM_P2
2023/03/19 00:01:53;;;;;;;;;;;11.00;99.90;;;;;;4973821;28;19926;-83
2023/03/19 00:04:21;;;;;;;;;;;11.00;99.90;;;;;;4976509;28;19981;-84
2023/03/19 00:06:49;;;;;;;;;;;11.00;99.90;;;;;;4974560;28;19926;-83
2023/03/19 00:09:15;;;;;;;;;;;11.00;99.90;;;;;;4996279;28;20036;-83
2023/03/19 00:11:42;;;;;;;;;;;11.00;99.90;;;;;;4995655;28;19949;-82
2023/03/19 00:14:09;;;;;;;;;;;11.10;99.90;;;;;;4959487;28;19956;-84
2023/03/19 00:16:36;;;;;;;;;;;10.70;99.90;;;;;;4959030;28;19957;-83
2023/03/19 00:19:03;;;;;;;;;;;11.20;99.90;;;;;;4978218;28;19926;-84
2023/03/19 00:21:31;;;;;;;;;;;11.20;99.90;;;;;;4978688;28;19948;-84
2023/03/19 00:24:01;;;;;;;;;;;12.50;99.90;;;;;;4962455;28;19922;-85
2023/03/19 00:26:28;;;;;;;;;;;11.30;99.90;;;;;;4978619;28;19965;-84
2023/03/19 00:28:54;;;;;;;;;;;11.30;99.90;;;;;;4960977;29;19946;-85
2023/03/19 00:31:22;;;;;;;;;;;11.20;99.90;;;;;;4949331;28;19926;-85
2023/03/19 00:33:49;;;;;;;;;;;11.30;99.90;;;;;;4944373;29;19922;-85
2023/03/19 00:36:17;;;;;;;;;;;11.20;99.90;;;;;;4968065;28;19933;-84
2023/03/19 00:38:43;;;;;;;;;;;11.10;99.90;;;;;;4972375;28;19953;-84
2023/03/19 00:41:12;;;;;;;;;;;10.90;99.90;;;;;;4957867;28;19926;-84
2023/03/19 00:43:39;;;;;;;;;;;10.90;99.90;;;;;;4947688;28;20053;-84
2023/03/19 00:46:06;;;;;;;;;;;10.80;99.90;;;;;;4940694;29;19934;-84
2023/03/19 00:48:32;;;;;;;;;;;10.80;99.90;;;;;;4934206;29;19945;-83
2023/03/19 00:51:02;;;;;;;;;;;10.70;99.90;;;;;;4931217;29;19923;-83
2023/03/19 00:53:29;;;;;;;;;;;10.70;99.90;;;;;;4933433;29;19955;-83
2023/03/19 00:55:55;;;;;;;;;;;10.70;99.90;;;;;;4945946;28;19927;-84
2023/03/19 00:58:23;;;;;;;;;;;10.70;99.90;;;;;;4964094;28;19969;-83
2023/03/19 01:00:52;;;;;;;;;;;10.50;99.90;;;;;;4955154;28;19937;-84
2023/03/19 01:03:19;;;;;;;;;;;10.40;99.90;;;;;;4935284;29;20285;-85
2023/03/19 01:05:47;;;;;;;;;;;10.40;99.90;;;;;;4940408;28;20563;-83
2023/03/19 01:08:14;;;;;;;;;;;10.30;99.90;;;;;;4942529;29;19922;-83
2023/03/19 01:10:40;;;;;;;;;;;10.00;99.90;;;;;;4953150;28;19981;-84
2023/03/19 01:13:07;;;;;;;;;;;10.20;99.90;;;;;;4958726;28;19933;-84
2023/03/19 01:15:36;;;;;;;;;;;10.10;99.90;;;;;;4944232;28;19982;-84
2023/03/19 01:18:03;;;;;;;;;;;10.00;99.90;;;;;;4957858;28;20424;-84
2023/03/19 01:20:30;;;;;;;;;;;10.00;99.90;;;;;;4941845;28;20449;-83
2023/03/19 01:22:57;;;;;;;;;;;9.90;99.90;;;;;;4958667;28;19926;-82
2023/03/19 01:25:24;;;;;;;;;;;9.90;99.90;;;;;;4971961;28;19922;-83
2023/03/19 01:28:09;;;;;;;;;;;9.90;99.90;;;;;;4958469;28;19973;-83
2023/03/19 01:30:40;;;;;;;;;;;9.70;99.90;;;;;;4957986;28;19929;-83
2023/03/19 01:33:10;;;;;;;;;;;9.70;99.90;;;;;;4952647;28;20359;-82
2023/03/19 01:35:42;;;;;;;;;;;9.70;99.90;;;;;;4917753;29;20389;-83
2023/03/19 01:38:09;;;;;;;;;;;9.70;99.90;;;;;;4938978;29;19962;-83
2023/03/19 01:40:36;;;;;;;;;;;9.60;99.90;;;;;;4927009;29;19929;-83
2023/03/19 01:43:14;;;;;;;;;;;9.60;99.90;;;;;;4916739;29;20306;-82
2023/03/19 01:46:00;;;;;;;;;;;9.50;99.90;;;;;;4932925;29;19927;-83
2023/03/19 01:48:38;;;;;;;;;;;9.50;99.90;;;;;;4940138;29;19923;-83
2023/03/19 01:51:10;;;;;;;;;;;9.50;99.90;;;;;;4932971;29;19931;-83
2023/03/19 01:53:57;;;;;;;;;;;9.50;99.90;;;;;;4954656;28;19933;-83
2023/03/19 01:56:44;;;;;;;;;;;9.50;99.90;;;;;;4940720;28;19926;-84
2023/03/19 01:59:20;;;;;;;;;;;9.50;99.90;;;;;;4941859;28;20389;-84
2023/03/19 02:02:09;;;;;;;;;;;9.50;99.90;;;;;;4935475;29;19929;-84
2023/03/19 02:04:37;;;;;;;;;;;9.60;99.90;;;;;;4928002;29;20578;-83
2023/03/19 02:07:05;;;;;;;;;;;9.60;99.90;;;;;;4953787;28;19930;-83
2023/03/19 02:09:32;;;;;;;;;;;9.60;99.90;;;;;;4951824;29;20013;-84
2023/03/19 02:12:00;;;;;;;;;;;9.60;99.90;;;;;;4927831;29;19930;-83
2023/03/19 02:14:27;;;;;;;;;;;9.60;99.90;;;;;;4953956;28;19989;-84
2023/03/19 02:16:54;;;;;;;;;;;9.60;99.90;;;;;;4929311;29;19929;-83
2023/03/19 02:19:26;;;;;;;;;;;9.70;99.90;;;;;;4923574;29;19926;-84
2023/03/19 02:21:53;;;;;;;;;;;9.70;99.90;;;;;;4944501;28;19933;-84
2023/03/19 02:24:22;;;;;;;;;;;9.70;99.90;;;;;;4938450;28;19974;-84
2023/03/19 02:27:01;;;;;;;;;;;9.70;99.90;;;;;;4951746;29;19937;-83
2023/03/19 02:29:28;;;;;;;;;;;9.70;99.90;;;;;;4932219;29;19926;-84
2023/03/19 02:31:58;;;;;;;;;;;10.00;99.90;;;;;;4920150;29;19990;-84
2023/03/19 02:34:35;;;;;;;;;;;9.80;99.90;;;;;;4933942;29;19923;-84
2023/03/19 02:37:04;;;;;;;;;;;9.90;99.90;;;;;;4949807;29;19950;-84
2023/03/19 02:39:33;;;;;;;;;;;9.90;99.90;;;;;;4967179;29;19929;-83
2023/03/19 02:42:02;;;;;;;;;;;9.90;99.90;;;;;;4970750;28;19918;-84
2023/03/19 02:44:33;;;;;;;;;;;9.90;99.90;;;;;;4935426;28;20018;-83
2023/03/19 02:47:00;;;;;;;;;;;9.90;99.90;;;;;;4950305;29;19985;-81
2023/03/19 02:49:27;;;;;;;;;;;9.90;99.90;;;;;;4965165;28;19938;-83
2023/03/19 02:51:54;;;;;;;;;;;9.90;99.90;;;;;;4955538;28;19926;-83
2023/03/19 02:54:20;;;;;;;;;;;9.90;99.90;;;;;;4973180;28;19933;-82
2023/03/19 02:56:47;;;;;;;;;;;10.00;99.90;;;;;;4950862;28;20293;-82
2023/03/19 02:59:16;;;;;;;;;;;10.00;99.90;;;;;;4959771;28;19929;-83
2023/03/19 03:01:42;;;;;;;;;;;10.00;99.90;;;;;;4939859;28;19993;-82
2023/03/19 03:04:09;;;;;;;;;;;10.00;99.90;;;;;;4927834;29;20127;-82
2023/03/19 03:06:36;;;;;;;;;;;10.00;99.90;;;;;;4940095;28;20308;-82
2023/03/19 03:09:03;;;;;;;;;;;10.00;99.90;;;;;;4966885;28;20394;-82
2023/03/19 03:11:30;;;;;;;;;;;10.10;99.90;;;;;;4950729;28;20476;-83
2023/03/19 03:13:57;;;;;;;;;;;10.10;99.90;;;;;;4955858;28;19922;-83
2023/03/19 03:16:25;;;;;;;;;;;10.20;99.90;;;;;;4955508;28;19928;-83
2023/03/19 03:18:52;;;;;;;;;;;10.20;99.90;;;;;;4934803;29;20366;-84
2023/03/19 03:21:20;;;;;;;;;;;10.20;99.90;;;;;;4935418;29;19922;-83
2023/03/19 03:23:47;;;;;;;;;;;10.20;99.90;;;;;;4953245;29;20451;-83
2023/03/19 03:26:14;;;;;;;;;;;10.20;99.90;;;;;;4965521;28;19926;-83
2023/03/19 03:28:41;;;;;;;;;;;10.20;99.90;;;;;;4970724;28;19928;-83
2023/03/19 03:31:07;;;;;;;;;;;10.20;99.90;;;;;;4954176;28;19922;-83
2023/03/19 03:33:36;;;;;;;;;;;10.30;99.90;;;;;;4944019;28;19926;-83
2023/03/19 03:36:03;;;;;;;;;;;10.30;99.90;;;;;;4940613;29;19926;-84
2023/03/19 03:38:31;;;;;;;;;;;10.30;99.90;;;;;;4970670;28;19930;-82
2023/03/19 03:40:58;;;;;;;;;;;10.30;99.90;;;;;;4943274;29;19922;-82
2023/03/19 03:43:27;;;;;;;;;;;10.30;99.90;;;;;;4948648;28;20428;-84
2023/03/19 03:45:53;;;;;;;;;;;10.30;99.90;;;;;;4963605;29;19910;-84
2023/03/19 03:48:21;;;;;;;;;;;10.30;99.90;;;;;;4950721;29;20027;-82
2023/03/19 03:50:50;;;;;;;;;;;10.40;99.90;;;;;;4950697;28;19937;-84
2023/03/19 03:53:21;;;;;;;;;;;10.40;99.90;;;;;;4960000;29;19922;-84
2023/03/19 03:55:48;;;;;;;;;;;10.40;99.90;;;;;;4992960;28;19941;-82
2023/03/19 03:58:18;;;;;;;;;;;10.40;99.90;;;;;;4942263;29;19977;-82
2023/03/19 04:00:46;;;;;;;;;;;10.50;99.90;;;;;;4954676;29;19933;-83
2023/03/19 04:03:13;;;;;;;;;;;10.50;99.90;;;;;;4955784;28;19932;-82
2023/03/19 04:05:40;;;;;;;;;;;10.50;99.90;;;;;;4937851;28;20316;-82
2023/03/19 04:08:08;;;;;;;;;;;10.50;99.90;;;;;;4953758;28;19988;-83
2023/03/19 04:10:35;;;;;;;;;;;10.50;99.90;;;;;;4945397;28;19932;-83
2023/03/19 04:13:02;;;;;;;;;;;10.50;99.90;;;;;;4941314;29;19937;-82
2023/03/19 04:15:31;;;;;;;;;;;10.60;99.90;;;;;;4953778;28;19926;-83
2023/03/19 04:17:58;;;;;;;;;;;10.60;99.90;;;;;;4969676;28;19922;-83
2023/03/19 04:20:25;;;;;;;;;;;10.70;99.90;;;;;;4971171;28;19922;-83
2023/03/19 04:22:52;;;;;;;;;;;10.70;99.90;;;;;;4969585;28;19929;-83
2023/03/19 04:25:20;;;;;;;;;;;10.80;99.90;;;;;;4962308;28;19973;-84
2023/03/19 04:27:47;;;;;;;;;;;10.80;99.90;;;;;;4959822;28;19930;-84
2023/03/19 04:30:14;;;;;;;;;;;10.90;99.90;;;;;;4960455;28;19941;-84
2023/03/19 04:32:43;;;;;;;;;;;10.90;99.90;;;;;;4954914;29;19910;-83
2023/03/19 04:35:10;;;;;;;;;;;10.90;99.90;;;;;;4947464;29;19926;-83
2023/03/19 04:37:37;;;;;;;;;;;10.90;99.90;;;;;;4934474;29;19922;-82
2023/03/19 04:40:05;;;;;;;;;;;11.00;99.90;;;;;;4927704;29;19927;-83
2023/03/19 04:42:36;;;;;;;;;;;11.00;99.90;;;;;;4933187;29;20349;-82
2023/03/19 04:45:14;;;;;;;;;;;11.10;99.90;;;;;;4934057;29;19927;-82
2023/03/19 04:47:42;;;;;;;;;;;11.10;99.90;;;;;;4937349;28;20109;-84
2023/03/19 04:50:09;;;;;;;;;;;11.10;99.90;;;;;;4996674;28;19926;-83
2023/03/19 04:52:37;;;;;;;;;;;11.10;99.90;;;;;;4959529;28;19922;-83
2023/03/19 04:55:04;;;;;;;;;;;11.20;99.90;;;;;;4919176;29;19978;-82
2023/03/19 04:57:40;;;;;;;;;;;11.20;99.90;;;;;;4951034;28;19937;-83
2023/03/19 05:00:08;;;;;;;;;;;11.20;99.90;;;;;;4953147;28;20379;-83
2023/03/19 05:02:38;;;;;;;;;;;11.20;99.90;;;;;;4927314;29;19922;-83
2023/03/19 05:05:05;;;;;;;;;;;11.20;99.90;;;;;;4919196;28;19930;-83
2023/03/19 05:07:33;;;;;;;;;;;11.30;99.90;;;;;;4955543;28;19933;-83
2023/03/19 05:10:02;;;;;;;;;;;11.30;99.90;;;;;;4944292;29;19969;-83
2023/03/19 05:12:29;;;;;;;;;;;11.30;99.90;;;;;;4920086;29;19922;-83
2023/03/19 05:14:58;;;;;;;;;;;11.30;99.90;;;;;;4936903;28;20442;-84
2023/03/19 05:17:32;;;;;;;;;;;11.30;99.90;;;;;;4948072;28;19933;-83
2023/03/19 05:20:10;;;;;;;;;;;11.40;99.90;;;;;;4951096;28;19921;-83
2023/03/19 05:22:40;;;;;;;;;;;11.40;99.90;;;;;;4956980;28;20403;-83
2023/03/19 05:25:07;;;;;;;;;;;11.40;99.90;;;;;;4950309;28;19934;-83
2023/03/19 05:27:34;;;;;;;;;;;11.40;99.90;;;;;;4955095;29;20309;-85
2023/03/19 05:30:07;;;;;;;;;;;11.40;99.90;;;;;;4953952;29;19954;-83
2023/03/19 05:32:47;;;;;;;;;;;11.40;99.90;;;;;;4949654;28;19926;-83
2023/03/19 05:35:24;;;;;;;;;;;11.50;99.90;;;;;;4949096;28;19926;-83
2023/03/19 05:37:52;;;;;;;;;;;;;;;;;;4945991;28;19927;-82
2023/03/19 05:40:18;;;;;;;;;;;11.50;99.90;;;;;;4945695;29;19926;-83
2023/03/19 05:42:47;;;;;;;;;;;11.50;99.90;;;;;;4940540;28;19926;-84
2023/03/19 05:45:18;;;;;;;;;;;11.50;99.90;;;;;;4935754;29;19945;-84
2023/03/19 05:47:50;;;;;;;;;;;11.50;99.90;;;;;;4948299;28;19976;-84
2023/03/19 05:50:19;;;;;;;;;;;11.40;99.90;;;;;;4949821;29;19961;-84
2023/03/19 05:53:09;;;;;;;;;;;11.40;99.90;;;;;;4954320;28;19956;-84
2023/03/19 05:55:39;;;;;;;;;;;11.40;99.90;;;;;;4948440;28;19926;-84
2023/03/19 05:58:09;;;;;;;;;;;11.40;99.90;;;;;;4949205;28;19949;-83
2023/03/19 06:00:37;;;;;;;;;;;11.30;99.90;;;;;;4935108;29;19923;-85
2023/03/19 06:03:04;;;;;;;;;;;11.30;99.90;;;;;;4931635;29;20448;-86
2023/03/19 06:05:50;;;;;;;;;;;11.30;99.90;;;;;;4963156;28;19997;-86
2023/03/19 06:08:31;;;;;;;;;;;11.30;99.90;;;;;;4941961;29;19926;-86
2023/03/19 06:11:27;;;;;;;;;;;11.30;99.90;;;;;;4959183;28;19933;-86
2023/03/19 06:14:26;;;;;;;;;;;11.30;99.90;;;;;;4983904;28;19941;-86
2023/03/19 06:17:28;;;;;;;;;;;11.30;99.90;;;;;;4975181;28;20262;-86
2023/03/19 06:20:00;;;;;;;;;;;11.30;99.90;;;;;;4973182;29;19938;-86
2023/03/19 06:22:28;;;;;;;;;;;11.40;99.90;;;;;;4962562;28;19938;-86
2023/03/19 06:24:55;;;;;;;;;;;11.40;99.90;;;;;;4957866;29;19926;-87
2023/03/19 06:27:22;;;;;;;;;;;11.50;99.90;;;;;;4954429;29;19929;-87
2023/03/19 06:29:50;;;;;;;;;;;11.50;99.90;;;;;;4934884;28;20732;-86
2023/03/19 06:32:23;;;;;;;;;;;11.60;99.90;;;;;;4940834;28;20177;-87
2023/03/19 06:34:53;;;;;;;;;;;11.50;99.90;;;;;;4941995;29;19926;-87
2023/03/19 06:37:21;;;;;;;;;;;11.60;99.90;;;;;;4936858;28;19934;-87
2023/03/19 06:39:48;;;;;;;;;;;11.50;99.90;;;;;;4936048;28;19922;-87
2023/03/19 06:42:16;;;;;;;;;;;11.70;99.90;;;;;;4954213;28;21269;-87
2023/03/19 06:44:46;;;;;;;;;;;11.70;99.90;;;;;;4937356;29;20301;-87
2023/03/19 06:47:13;;;;;;;;;;;11.70;99.90;;;;;;4958599;28;19933;-86
2023/03/19 06:49:41;;;;;;;;;;;11.70;99.90;;;;;;4954601;28;20001;-87
2023/03/19 06:52:36;;;;;;;;;;;11.70;99.90;;;;;;4958157;28;19922;-87
2023/03/19 06:55:07;;;;;;;;;;;11.70;99.90;;;;;;4973404;29;19937;-87
2023/03/19 06:57:41;;;;;;;;;;;11.70;99.90;;;;;;4983020;28;19921;-87
2023/03/19 07:00:10;;;;;;;;;;;11.80;99.90;;;;;;4981196;28;19910;-87
2023/03/19 07:02:37;;;;;;;;;;;11.80;99.90;;;;;;4978394;28;19910;-86
2023/03/19 07:05:08;;;;;;;;;;;11.90;99.90;;;;;;4970177;28;19926;-86
2023/03/19 07:07:36;;;;;;;;;;;11.90;99.90;;;;;;4984819;28;20121;-86
2023/03/19 07:10:04;;;;;;;;;;;12.00;99.90;;;;;;4943910;28;20057;-86
2023/03/19 07:12:31;;;;;;;;;;;12.10;99.90;;;;;;4945252;28;20025;-86
2023/03/19 07:14:57;;;;;;;;;;;12.10;99.90;;;;;;4930251;28;19926;-86
2023/03/19 07:17:25;;;;;;;;;;;12.30;99.90;;;;;;4964511;28;19926;-86
2023/03/19 07:19:52;;;;;;;;;;;12.10;99.90;;;;;;4974194;28;20017;-86
2023/03/19 07:22:20;;;;;;;;;;;12.20;99.90;;;;;;4963372;29;19938;-86
2023/03/19 07:24:48;;;;;;;;;;;12.20;99.90;;;;;;4947195;28;19922;-85
2023/03/19 07:27:15;;;;;;;;;;;12.30;99.90;;;;;;4987159;28;19926;-86
2023/03/19 07:29:49;;;;;;;;;;;12.30;99.90;;;;;;4974734;28;19945;-85
2023/03/19 07:32:17;;;;;;;;;;;12.40;99.90;;;;;;4962906;28;20379;-84
2023/03/19 07:34:43;;;;;;;;;;;12.40;99.90;;;;;;4948467;29;19962;-85
2023/03/19 07:37:10;;;;;;;;;;;12.50;99.90;;;;;;4963489;28;20580;-84
2023/03/19 07:39:37;;;;;;;;;;;12.60;99.90;;;;;;4935110;29;19926;-85
2023/03/19 07:42:06;;;;;;;;;;;12.90;99.90;;;;;;4936961;28;19967;-86
2023/03/19 07:44:32;;;;;;;;;;;12.90;99.90;;;;;;4954574;28;19930;-87
2023/03/19 07:47:00;;;;;;;;;;;13.20;99.90;;;;;;4947296;29;19973;-86
2023/03/19 07:49:26;;;;;;;;;;;13.20;99.90;;;;;;4948031;28;19926;-87
2023/03/19 07:51:53;;;;;;;;;;;13.40;99.90;;;;;;4939354;28;20081;-87
2023/03/19 07:54:22;;;;;;;;;;;13.40;99.90;;;;;;4938583;28;19937;-87
2023/03/19 07:56:49;;;;;;;;;;;13.50;99.90;;;;;;4958847;28;19930;-86
2023/03/19 07:59:18;;;;;;;;;;;13.50;99.90;;;;;;4940011;28;19927;-86
2023/03/19 08:01:45;;;;;;;;;;;13.50;99.90;;;;;;4945204;28;20033;-86
2023/03/19 08:04:12;;;;;;;;;;;13.50;99.90;;;;;;4945022;28;20419;-88
2023/03/19 08:06:40;;;;;;;;;;;13.70;99.90;;;;;;4934347;28;19910;-85
2023/03/19 08:09:14;;;;;;;;;;;13.30;99.90;;;;;;4781225;28;19918;-85
2023/03/19 08:11:47;;;;;;;;;;;13.70;99.90;;;;;;4786514;28;20368;-86
2023/03/19 08:14:22;;;;;;;;;;;13.60;99.90;;;;;;4799247;28;20000;-85
2023/03/19 08:16:49;;;;;;;;;;;14.50;99.90;;;;;;4797349;28;19950;-87
2023/03/19 08:19:17;;;;;;;;;;;13.60;99.90;;;;;;4777526;29;19948;-85
2023/03/19 08:21:45;;;;;;;;;;;13.60;99.90;;;;;;4793870;28;20889;-86
2023/03/19 08:24:12;;;;;;;;;;;13.60;99.90;;;;;;4800806;28;19922;-86
2023/03/19 08:26:39;;;;;;;;;;;13.80;99.90;;;;;;4801944;28;20390;-86
2023/03/19 08:29:07;;;;;;;;;;;13.40;99.90;;;;;;4786487;28;20013;-86
2023/03/19 08:31:37;;;;;;;;;;;14.30;99.90;;;;;;4853764;29;19926;-88
2023/03/19 08:34:05;;;;;;;;;;;14.40;99.90;;;;;;4948473;29;19957;-87
2023/03/19 08:36:31;;;;;;;;;;;14.60;99.90;;;;;;4980002;28;19938;-85
2023/03/19 08:38:59;;;;;;;;;;;14.70;99.90;;;;;;4947557;28;19950;-87
2023/03/19 08:41:26;;;;;;;;;;;14.80;99.90;;;;;;4982501;28;19910;-87
2023/03/19 08:43:55;;;;;;;;;;;14.80;99.90;;;;;;4983634;28;19934;-86
2023/03/19 08:46:28;;;;;;;;;;;14.90;99.90;;;;;;4998753;28;19998;-90
2023/03/19 08:48:56;;;;;;;;;;;15.10;99.90;;;;;;4964786;28;19950;-90
2023/03/19 08:51:24;;;;;;;;;;;15.30;99.90;;;;;;4980797;28;19923;-90
2023/03/19 08:53:51;;;;;;;;;;;15.70;99.90;;;;;;4952421;29;19926;-87
2023/03/19 08:56:18;;;;;;;;;;;15.50;99.90;;;;;;4933796;28;19933;-88
2023/03/19 08:58:45;;;;;;;;;;;15.70;99.90;;;;;;4941656;28;19929;-87
2023/03/19 09:01:13;;;;;;;;;;;15.90;99.90;;;;;;4960475;28;20748;-87
2023/03/19 09:03:40;;;;;;;;;;;16.00;99.90;;;;;;4940661;28;20357;-91
2023/03/19 09:06:10;;;;;;;;;;;16.10;99.90;;;;;;4970365;28;19932;-88
2023/03/19 09:08:37;;;;;;;;;;;16.20;99.90;;;;;;4937034;29;19926;-87
2023/03/19 09:11:04;;;;;;;;;;;16.30;99.90;;;;;;4936692;28;19931;-86
2023/03/19 09:13:31;;;;;;;;;;;16.30;99.90;;;;;;4947758;28;19926;-86
2023/03/19 09:15:58;;;;;;;;;;;16.40;99.90;;;;;;4949770;28;19934;-86
2023/03/19 09:18:25;;;;;;;;;;;16.50;99.90;;;;;;4934944;29;20230;-86
2023/03/19 09:20:51;;;;;;;;;;;16.70;99.90;;;;;;4955288;28;19926;-85
2023/03/19 09:23:20;;;;;;;;;;;17.20;99.90;;;;;;4949535;28;19959;-86
2023/03/19 09:25:47;;;;;;;;;;;16.90;99.90;;;;;;4952162;29;20277;-85
2023/03/19 09:28:13;;;;;;;;;;;17.10;99.90;;;;;;4934628;29;20032;-83
2023/03/19 09:30:40;;;;;;;;;;;17.10;99.90;;;;;;4933909;29;19986;-86
2023/03/19 09:33:07;;;;;;;;;;;17.20;99.90;;;;;;4933524;29;19930;-86
2023/03/19 09:35:37;;;;;;;;;;;17.30;99.90;;;;;;4940206;29;19974;-86
2023/03/19 09:38:04;;;;;;;;;;;17.20;99.90;;;;;;4957106;28;19930;-88
2023/03/19 09:40:34;;;;;;;;;;;17.10;99.90;;;;;;4945444;29;20396;-85
2023/03/19 09:43:05;;;;;;;;;;;16.90;99.90;;;;;;4947411;29;19929;-84
2023/03/19 09:45:32;;;;;;;;;;;16.90;99.90;;;;;;4957597;29;20518;-84
2023/03/19 09:48:03;;;;;;;;;;;16.40;99.90;;;;;;4955399;29;19933;-86
2023/03/19 09:50:33;;;;;;;;;;;16.30;99.90;;;;;;4940976;28;19922;-85
2023/03/19 09:53:03;;;;;;;;;;;16.30;99.90;;;;;;4969352;28;20501;-87
2023/03/19 09:55:38;;;;;;;;;;;16.00;99.90;;;;;;4950429;29;19933;-88
2023/03/19 09:58:10;;;;;;;;;;;15.80;99.90;;;;;;4937502;29;19922;-87
2023/03/19 10:00:37;;;;;;;;;;;15.60;99.90;;;;;;4968888;28;19933;-86
2023/03/19 10:03:06;;;;;;;;;;;15.60;99.90;;;;;;4959216;28;19937;-88
2023/03/19 10:05:42;;;;;;;;;;;15.70;99.90;;;;;;4938720;29;19926;-88
2023/03/19 10:08:24;;;;;;;;;;;15.60;99.90;;;;;;4952081;29;19937;-87
2023/03/19 10:10:58;;;;;;;;;;;15.60;99.90;;;;;;4940369;28;19929;-87
2023/03/19 10:13:30;;;;;;;;;;;15.60;99.90;;;;;;4943257;29;20404;-88
2023/03/19 10:15:57;;;;;;;;;;;15.60;99.90;;;;;;4955424;29;20344;-87
2023/03/19 10:18:26;;;;;;;;;;;15.60;99.90;;;;;;4960282;28;19926;-85
2023/03/19 10:20:55;;;;;;;;;;;15.60;99.90;;;;;;4973160;28;19970;-86
2023/03/19 10:23:34;;;;;;;;;;;15.40;99.90;;;;;;4960999;28;19984;-85
2023/03/19 10:26:03;;;;;;;;;;;15.20;99.90;;;;;;4944766;29;19922;-84
2023/03/19 10:28:30;;;;;;;;;;;14.90;99.90;;;;;;4975116;28;20380;-86
2023/03/19 10:31:01;;;;;;;;;;;14.50;99.90;;;;;;4950826;28;19926;-85
2023/03/19 10:33:36;;;;;;;;;;;14.50;99.90;;;;;;4960311;29;20312;-84
2023/03/19 10:36:05;;;;;;;;;;;14.30;99.90;;;;;;4981559;28;19953;-85
2023/03/19 10:38:32;;;;;;;;;;;14.10;99.90;;;;;;4939968;29;19923;-85
2023/03/19 10:41:14;;;;;;;;;;;14.00;99.90;;;;;;4960586;28;19926;-85
2023/03/19 10:43:43;;;;;;;;;;;13.90;99.90;;;;;;4958466;29;19926;-85
2023/03/19 10:46:12;;;;;;;;;;;13.90;99.90;;;;;;4977104;28;19922;-87
2023/03/19 10:48:42;;;;;;;;;;;13.90;99.90;;;;;;4970046;29;19976;-84
2023/03/19 10:51:13;;;;;;;;;;;13.80;99.90;;;;;;4966945;28;19922;-84
2023/03/19 10:53:40;;;;;;;;;;;13.80;99.90;;;;;;4951085;29;19930;-85
2023/03/19 10:56:15;;;;;;;;;;;13.70;99.90;;;;;;4973103;28;19921;-85
2023/03/19 10:58:55;;;;;;;;;;;13.60;99.90;;;;;;4954384;28;20017;-87
2023/03/19 11:01:26;;;;;;;;;;;13.40;99.90;;;;;;4965131;29;19946;-83
2023/03/19 11:03:56;;;;;;;;;;;13.40;99.90;;;;;;4954504;28;19938;-83
2023/03/19 11:06:25;;;;;;;;;;;13.40;99.90;;;;;;4984852;28;19966;-82
2023/03/19 11:08:54;;;;;;;;;;;13.40;99.90;;;;;;4954277;29;19921;-81
2023/03/19 11:11:25;;;;;;;;;;;13.60;99.90;;;;;;4961861;28;19910;-86
2023/03/19 11:13:53;;;;;;;;;;;13.60;99.90;;;;;;4963701;28;19953;-85
2023/03/19 11:16:20;;;;;;;;;;;13.70;99.90;;;;;;4955353;29;19964;-85
2023/03/19 11:18:49;;;;;;;;;;;13.80;99.90;;;;;;4980390;28;19969;-85
2023/03/19 11:21:24;;;;;;;;;;;14.00;99.90;;;;;;4959311;28;19934;-86
2023/03/19 11:23:52;;;;;;;;;;;14.10;99.90;;;;;;4969305;29;19946;-84
2023/03/19 11:26:19;;;;;;;;;;;14.30;99.90;;;;;;4959219;28;20025;-84
2023/03/19 11:28:50;;;;;;;;;;;14.60;99.90;;;;;;4961427;28;19931;-88
2023/03/19 11:31:23;;;;;;;;;;;15.10;99.90;;;;;;4956300;29;19922;-86
2023/03/19 11:33:56;;;;;;;;;;;15.30;99.90;;;;;;4953083;28;19932;-85
2023/03/19 11:36:25;;;;;;;;;;;15.30;99.90;;;;;;4942880;29;19922;-85
2023/03/19 11:38:57;;;;;;;;;;;15.40;99.90;;;;;;4953323;28;19953;-88
2023/03/19 11:41:29;;;;;;;;;;;15.50;99.90;;;;;;4964590;28;19914;-88
2023/03/19 11:43:58;;;;;;;;;;;16.00;99.90;;;;;;4975126;28;19910;-86
2023/03/19 11:46:35;;;;;;;;;;;16.40;99.90;;;;;;4980081;28;19926;-87
2023/03/19 11:49:15;;;;;;;;;;;16.70;99.90;;;;;;4973082;28;19911;-86
2023/03/19 11:51:45;;;;;;;;;;;16.70;99.90;;;;;;4958909;28;19910;-87
2023/03/19 11:54:17;;;;;;;;;;;16.70;99.90;;;;;;4965212;28;19942;-86
2023/03/19 11:56:47;;;;;;;;;;;16.60;99.90;;;;;;4963703;29;20251;-86
2023/03/19 11:59:38;;;;;;;;;;;16.70;99.90;;;;;;4959370;28;19926;-81
2023/03/19 12:02:20;;;;;;;;;;;16.90;99.90;;;;;;4935101;28;19930;-85
2023/03/19 12:05:00;;;;;;;;;;;17.00;99.90;;;;;;4935635;28;19926;-84
2023/03/19 12:07:32;;;;;;;;;;;17.00;99.90;;;;;;4960559;29;19928;-85
2023/03/19 12:10:07;;;;;;;;;;;16.80;99.90;;;;;;4943721;29;19977;-86
2023/03/19 12:12:35;;;;;;;;;;;16.60;99.90;;;;;;4961607;28;19923;-86
2023/03/19 12:15:08;;;;;;;;;;;16.60;99.90;;;;;;4978809;28;19989;-86
2023/03/19 12:17:52;;;;;;;;;;;16.60;99.90;;;;;;4935711;28;19973;-85
2023/03/19 12:20:25;;;;;;;;;;;16.80;99.90;;;;;;4961422;28;19922;-87
2023/03/19 12:22:59;;;;;;;;;;;17.20;99.90;;;;;;4926135;29;19923;-88
2023/03/19 12:25:38;;;;;;;;;;;17.50;99.90;;;;;;4954996;29;19954;-87
2023/03/19 12:28:09;;;;;;;;;;;17.60;99.90;;;;;;4958245;29;19926;-88
2023/03/19 12:30:40;;;;;;;;;;;17.70;99.90;;;;;;4936043;29;19961;-87
2023/03/19 12:33:11;;;;;;;;;;;17.80;99.90;;;;;;4948288;28;20020;-87
2023/03/19 12:35:42;;;;;;;;;;;17.90;99.90;;;;;;4953812;28;19933;-88
2023/03/19 12:38:10;;;;;;;;;;;18.00;99.90;;;;;;4952117;28;19966;-87
2023/03/19 12:40:40;;;;;;;;;;;18.10;99.90;;;;;;4945772;29;19933;-86
2023/03/19 12:43:14;;;;;;;;;;;18.20;99.90;;;;;;4935752;29;20126;-84
2023/03/19 12:45:42;;;;;;;;;;;18.30;99.90;;;;;;4957475;29;20400;-85
2023/03/19 12:48:11;;;;;;;;;;;18.40;99.90;;;;;;4939555;28;19926;-85
2023/03/19 12:50:39;;;;;;;;;;;18.40;99.90;;;;;;4967639;28;20384;-85
2023/03/19 12:53:11;;;;;;;;;;;18.50;99.90;;;;;;4968217;28;19974;-85
2023/03/19 12:55:42;;;;;;;;;;;20.20;99.90;;;;;;4971719;28;19910;-86
2023/03/19 12:58:13;;;;;;;;;;;18.60;99.90;;;;;;4959804;28;19917;-83
2023/03/19 13:00:45;;;;;;;;;;;;;;;;;;4962759;28;19920;-84
2023/03/19 13:03:23;;;;;;;;;;;18.70;99.90;;;;;;4968135;28;19923;-86
2023/03/19 13:05:56;;;;;;;;;;;18.90;99.90;;;;;;4956694;29;19922;-84
2023/03/19 13:08:33;;;;;;;;;;;19.10;99.90;;;;;;4929653;29;19927;-86
2023/03/19 13:11:01;;;;;;;;;;;19.40;99.90;;;;;;4965040;28;20372;-84
2023/03/19 13:13:35;;;;;;;;;;;19.40;99.90;;;;;;4972910;28;19927;-84
2023/03/19 13:16:05;;;;;;;;;;;19.00;99.90;;;;;;4945832;29;19949;-85
2023/03/19 13:18:37;;;;;;;;;;;19.30;99.90;;;;;;4942841;29;19934;-85
2023/03/19 13:21:19;;;;;;;;;;;17.20;99.90;;;;;;4951455;28;19949;-85
2023/03/19 13:23:48;;;;;;;;;;;18.40;99.90;;;;;;4988262;28;19926;-85
2023/03/19 13:26:16;;;;;;;;;;;18.30;99.90;;;;;;4974269;28;19997;-86
2023/03/19 13:29:00;;;;;;;;;;;17.80;99.90;;;;;;4975883;28;19929;-88
2023/03/19 13:31:27;;;;;;;;;;;17.60;99.90;;;;;;4966060;28;20338;-88
2023/03/19 13:34:00;;;;;;;;;;;17.60;99.90;;;;;;4965073;28;19927;-88
2023/03/19 13:36:29;;;;;;;;;;;17.30;99.90;;;;;;4962767;28;19930;-86
2023/03/19 13:38:58;;;;;;;;;;;17.00;99.90;;;;;;4965860;28;19930;-86
2023/03/19 13:41:41;;;;;;;;;;;16.80;99.90;;;;;;4946570;28;19926;-86
2023/03/19 13:44:24;;;;;;;;;;;16.80;99.90;;;;;;4940534;28;19926;-86
2023/03/19 13:46:51;;;;;;;;;;;17.10;99.90;;;;;;4957033;28;19929;-88
2023/03/19 13:49:28;;;;;;;;;;;17.00;99.90;;;;;;4944218;28;20644;-88
2023/03/19 13:51:57;;;;;;;;;;;17.20;99.90;;;;;;4937890;29;19937;-88
2023/03/19 13:54:36;;;;;;;;;;;17.20;99.90;;;;;;4944905;28;20652;-88
2023/03/19 13:57:21;;;;;;;;;;;17.20;99.90;;;;;;4944357;29;19926;-88
2023/03/19 13:59:49;;;;;;;;;;;17.20;99.90;;;;;;4946696;29;19922;-88
2023/03/19 14:02:35;;;;;;;;;;;17.20;99.90;;;;;;4956691;28;19976;-88
2023/03/19 14:05:04;;;;;;;;;;;17.20;99.90;;;;;;4962447;28;19952;-87
2023/03/19 14:07:35;;;;;;;;;;;17.20;99.90;;;;;;4955298;28;19972;-88
2023/03/19 14:10:07;;;;;;;;;;;17.10;99.90;;;;;;4943946;29;19948;-88
2023/03/19 14:12:34;;;;;;;;;;;17.00;99.90;;;;;;4958534;28;20291;-88
2023/03/19 14:15:03;;;;;;;;;;;16.90;99.90;;;;;;4965790;28;19948;-88
2023/03/19 14:17:31;;;;;;;;;;;16.80;99.90;;;;;;4965976;28;19922;-88
2023/03/19 14:20:03;;;;;;;;;;;16.70;99.90;;;;;;4974437;28;19925;-88
2023/03/19 14:22:39;;;;;;;;;;;16.40;99.90;;;;;;4981350;28;19910;-85
2023/03/19 14:25:18;;;;;;;;;;;16.40;99.90;;;;;;4962561;29;19918;-85
2023/03/19 14:27:47;;;;;;;;;;;16.40;99.90;;;;;;4960810;29;19927;-85
2023/03/19 14:30:24;;;;;;;;;;;16.30;99.90;;;;;;4962641;29;19945;-85
2023/03/19 14:32:51;;;;;;;;;;;16.30;99.90;;;;;;4980143;28;20135;-87
2023/03/19 14:35:19;;;;;;;;;;;16.30;99.90;;;;;;4975055;28;19981;-86
2023/03/19 14:37:48;;;;;;;;;;;16.30;99.90;;;;;;4979392;28;19913;-87